Jenkintown, Pennsylvania
Current Conditions -  °F | °C
As of 6:54 AM on Wednesday 28 Jan 2015 (Local Time) from KPNE Reporting Station
Clear Clear  
Wind Chill:   Ceiling: Unl
Heat Index: 20°   Visibility: 10mi
Dew Point: -4°   Wind: 10mph
Humidity: 35%   Direction: 310°NW
Pressure: 30.06"   Gusts: 21mph
Location:  40.1°N, 75.13°W
Report Text: KPNE 281154Z AUTO 31009G18KT 10SM CLR M07/M20 A3006 RMK AO2 SLP181 70003 T10671200 11067 21072 53024 TSNO
Loading
Personal Weather Stations






























Interactive Weather Map New forecast layout! Learn more

10-Day Weather Forecast

Advertisements
Track Severe Weather on mobile